KNH weather

Kinmen Airport
Shang-I, Kinmen County, Taiwan

Public forecast

Using degrees Celsius for public forecast. Weather courtesy of forecast.io.

Closest aviation weather report (METAR) to Kinmen Airport

Closest report is Xiamen Gaoqi International Airport, 14.4 nm (26.7 km) WNW. Retrieved 2020/01/19 23:00 UTC (51 minutes ago):

ZSAM 192300Z 09003MPS 040V120 7000 OVC023 14/10 Q1023 NOSIG

Aviation forecast (TAF) for Kinmen Airport

Forecast is more than 12 hours old.

Retrieved 2020/01/15 06:03 UTC (5 days ago):

TAF TAF RCBS 150500Z 1506/1606 03013KT 7000 FEW012 BKN032 TEMPO 1506/1510 08015KT 5000 HZ TEMPO 1510/1514 05018KT SCT008 BKN017 BKN035 BECMG 1518/1520 02005KT TEMPO 1520/1602 4000 BR SCT007 BKN016 BKN030 BECMG 1602/1604 12005KT